Time;durP1;ratioP1;P1;durP2;ratioP2;P2;SDS_P1;SDS_P2;PMS_P1;PMS_P2;Temp;Humidity;BMP_temperature;BMP_pressure;BME280_temperature;BME280_humidity;BME280_pressure;Samples;Min_cycle;Max_cycle;Signal;HPM_P1;HPM_P2
2022/05/01 00:01:01;;;;;;;8.88;7.82;;;;;;;14.55;48.14;102350.03;5115336;28;20047;-61
2022/05/01 00:03:30;;;;;;;12.00;8.80;;;;;;;14.46;48.14;102358.75;5127950;27;20047;-61
2022/05/01 00:06:03;;;;;;;10.52;8.70;;;;;;;14.38;48.38;102353.78;5135358;27;20100;-61
2022/05/01 00:08:31;;;;;;;12.95;9.00;;;;;;;14.35;48.54;102356.69;5134392;27;20054;-62
2022/05/01 00:11:00;;;;;;;11.75;8.90;;;;;;;14.35;48.59;102359.38;5123541;27;20040;-62
2022/05/01 00:13:43;;;;;;;11.80;8.45;;;;;;;14.38;48.36;102356.50;5109173;27;20043;-61
2022/05/01 00:16:11;;;;;;;11.15;8.65;;;;;;;14.40;48.72;102361.81;5133086;27;20036;-61
2022/05/01 00:18:40;;;;;;;10.20;8.07;;;;;;;14.43;48.73;102359.81;5117034;27;20528;-61
2022/05/01 00:21:07;;;;;;;11.65;8.85;;;;;;;14.46;48.58;102353.34;5135058;27;20084;-61
2022/05/01 00:23:34;;;;;;;12.70;8.73;;;;;;;14.46;48.60;102348.78;5133305;27;20044;-61
2022/05/01 00:26:03;;;;;;;12.13;8.57;;;;;;;14.46;48.47;102347.94;5134325;27;20039;-61
2022/05/01 00:28:32;;;;;;;12.85;9.63;;;;;;;14.45;48.61;102346.19;5134340;27;20070;-61
2022/05/01 00:30:59;;;;;;;10.48;8.48;;;;;;;14.44;48.67;102347.16;5133055;27;20496;-61
2022/05/01 00:36:27;;;;;;;13.10;9.18;;;;;;;14.38;48.46;102344.81;5114778;28;20484;-62
2022/05/01 00:38:56;;;;;;;11.75;9.25;;;;;;;14.36;48.76;102346.75;5114688;27;20430;-61
2022/05/01 00:41:24;;;;;;;14.63;9.40;;;;;;;14.34;48.73;102348.69;5114582;28;20047;-62
2022/05/01 00:44:08;;;;;;;12.38;9.30;;;;;;;14.34;48.87;102351.38;5124441;27;20480;-61
2022/05/01 00:46:38;;;;;;;10.50;8.43;;;;;;;14.35;48.88;102353.13;5108671;27;20043;-61
2022/05/01 00:49:10;;;;;;;12.13;8.85;;;;;;;14.32;48.64;102348.78;5134569;27;20039;-62
2022/05/01 00:51:43;;;;;;;12.02;8.95;;;;;;;14.32;48.83;102346.94;5134987;27;20062;-61
2022/05/01 00:54:11;;;;;;;12.77;9.48;;;;;;;14.32;48.66;102340.66;5133085;27;20430;-62
2022/05/01 00:56:40;;;;;;;11.13;8.95;;;;;;;14.27;48.85;102338.25;5131789;27;20039;-61
2022/05/01 00:59:07;;;;;;;11.48;8.82;;;;;;;14.26;49.02;102333.81;5134460;27;20035;-61
2022/05/01 01:01:35;;;;;;;11.18;9.20;;;;;;;14.26;49.01;102335.66;5133775;27;20046;-61
2022/05/01 01:04:02;;;;;;;15.65;9.85;;;;;;;14.26;49.06;102335.66;5133401;27;20035;-61
2022/05/01 01:06:29;;;;;;;11.48;9.25;;;;;;;14.26;48.94;102330.25;5133265;27;20396;-61
2022/05/01 01:08:56;;;;;;;17.90;10.70;;;;;;;14.26;49.14;102325.69;5120692;27;20051;-62
2022/05/01 01:11:22;;;;;;;12.25;9.80;;;;;;;14.27;49.21;102334.69;5123227;27;20412;-62
2022/05/01 01:13:49;;;;;;;10.00;8.85;;;;;;;14.29;49.10;102336.31;5133186;27;20082;-62
2022/05/01 01:16:16;;;;;;;12.15;9.18;;;;;;;14.32;49.05;102337.97;5133561;27;20047;-61
2022/05/01 01:18:42;;;;;;;16.55;9.93;;;;;;;14.31;49.04;102339.78;5133451;27;20047;-62
2022/05/01 01:21:11;;;;;;;10.73;9.38;;;;;;;14.29;49.01;102340.84;5133716;27;20063;-63
2022/05/01 01:23:40;;;;;;;11.07;8.95;;;;;;;14.24;49.10;102335.75;5132393;27;20404;-61
2022/05/01 01:26:07;;;;;;;13.95;9.95;;;;;;;14.23;49.21;102334.00;5133865;28;20512;-62
2022/05/01 01:28:42;;;;;;;11.25;9.40;;;;;;;14.24;49.13;102332.16;5131444;27;20739;-61
2022/05/01 01:33:59;;;;;;;13.55;10.52;;;;;;;14.24;49.17;102330.34;5133202;28;20157;-61
2022/05/01 01:36:32;;;;;;;13.02;9.20;;;;;;;14.25;49.33;102328.50;5133668;27;20047;-62
2022/05/01 01:38:59;;;;;;;17.95;10.48;;;;;;;14.25;49.34;102320.41;5115812;28;20062;-62
2022/05/01 01:41:31;;;;;;;16.40;10.10;;;;;;;14.24;49.24;102332.16;5128499;28;20035;-61
2022/05/01 01:43:59;;;;;;;15.35;10.13;;;;;;;14.22;49.59;102329.56;5131620;27;20128;-62
2022/05/01 01:46:26;;;;;;;15.32;10.50;;;;;;;14.18;49.28;102328.03;5133653;27;20085;-61
2022/05/01 01:48:53;;;;;;;16.02;10.27;;;;;;;14.14;49.27;102329.19;5134009;27;20035;-62
2022/05/01 01:51:20;;;;;;;14.45;10.38;;;;;;;14.10;49.55;102322.19;5133449;27;20040;-61
2022/05/01 01:53:47;;;;;;;14.18;10.45;;;;;;;14.09;49.73;102325.00;5122507;27;20517;-61
2022/05/01 01:56:13;;;;;;;15.60;10.73;;;;;;;14.10;49.65;102330.31;5134090;27;20027;-62
2022/05/01 01:58:44;;;;;;;13.57;10.20;;;;;;;14.11;49.64;102320.38;5130218;28;20039;-61
2022/05/01 02:01:11;;;;;;;13.48;11.18;;;;;;;14.12;49.67;102327.50;5101334;28;20040;-62
2022/05/01 02:03:38;;;;;;;13.65;10.13;;;;;;;14.12;49.74;102320.31;5130500;28;20446;-61
2022/05/01 02:06:05;;;;;;;15.48;10.73;;;;;;;14.11;49.72;102317.66;5118451;28;20047;-62
2022/05/01 02:08:34;;;;;;;15.85;10.65;;;;;;;14.07;49.56;102319.69;5133731;28;20150;-62
2022/05/01 02:11:05;;;;;;;13.38;10.52;;;;;;;14.04;49.61;102319.00;5131464;27;20092;-61
2022/05/01 02:13:34;;;;;;;14.45;11.18;;;;;;;14.00;49.73;102324.59;5133647;27;20576;-61
2022/05/01 02:16:01;;;;;;;14.32;10.73;;;;;;;14.00;50.01;102313.78;5133185;27;20035;-62
2022/05/01 02:18:28;;;;;;;14.13;10.40;;;;;;;14.04;50.08;102316.31;5133783;27;20050;-61
2022/05/01 02:23:40;;;;;;;16.07;11.27;;;;;;;14.00;49.97;102315.63;5132441;28;20046;-61
2022/05/01 02:26:07;;;;;;;13.70;10.75;;;;;;;13.98;49.84;102310.31;5132993;27;20046;-61
2022/05/01 02:28:33;;;;;;;13.52;11.30;;;;;;;13.97;50.02;102313.13;5131588;28;20035;-62
2022/05/01 02:31:00;;;;;;;15.27;11.27;;;;;;;13.94;50.03;102310.59;5135450;27;20043;-62
2022/05/01 02:33:27;;;;;;;15.30;10.57;;;;;;;13.93;50.24;102312.44;5117737;27;20050;-62
2022/05/01 02:35:53;;;;;;;13.23;10.32;;;;;;;13.92;50.23;102310.69;5137714;27;20408;-62
2022/05/01 02:38:20;;;;;;;12.85;10.80;;;;;;;13.91;50.04;102306.25;5136679;27;20051;-62
2022/05/01 02:40:46;;;;;;;14.95;10.68;;;;;;;13.88;50.15;102309.16;5135617;27;20058;-62
2022/05/01 02:43:13;;;;;;;13.15;10.57;;;;;;;13.86;49.98;102304.81;5137209;27;20081;-62
2022/05/01 02:45:40;;;;;;;11.80;10.32;;;;;;;13.82;50.16;102303.25;5137124;27;20039;-61
2022/05/01 02:48:07;;;;;;;17.20;11.30;;;;;;;13.77;50.54;102305.38;5131640;27;20044;-62
2022/05/01 02:50:34;;;;;;;16.15;11.68;;;;;;;13.73;50.19;102306.53;5124838;27;20051;-61
2022/05/01 02:53:04;;;;;;;14.40;11.77;;;;;;;13.74;50.48;102303.75;5135081;27;20043;-62
2022/05/01 02:55:32;;;;;;;18.88;11.93;;;;;;;13.75;50.60;102294.69;5136492;27;20051;-61
2022/05/01 02:57:58;;;;;;;17.02;11.68;;;;;;;13.79;50.53;102303.44;5137005;27;20042;-62
2022/05/01 03:00:25;;;;;;;13.45;11.13;;;;;;;13.81;50.83;102302.41;5136916;27;20393;-61
2022/05/01 03:02:51;;;;;;;13.57;11.02;;;;;;;13.84;50.63;102301.34;5118666;27;20048;-61
2022/05/01 03:05:18;;;;;;;14.40;11.70;;;;;;;13.84;50.60;102296.81;5136788;27;20053;-62
2022/05/01 03:07:45;;;;;;;16.17;11.85;;;;;;;13.86;50.76;102294.00;5132179;27;20035;-61
2022/05/01 03:10:11;;;;;;;18.83;12.48;;;;;;;13.85;50.47;102289.56;5124816;27;20050;-62
2022/05/01 03:12:37;;;;;;;15.05;11.63;;;;;;;13.84;50.54;102287.84;5130406;27;20036;-62
2022/05/01 03:15:08;;;;;;;14.73;11.27;;;;;;;13.81;50.76;102285.31;5135544;27;20035;-62
2022/05/01 03:23:06;;;;;;;15.43;11.88;;;;;;;13.79;50.86;102298.91;5135339;27;20043;-61
2022/05/01 03:25:33;;;;;;;17.80;11.90;;;;;;;13.78;50.68;102296.31;5127084;27;20047;-61
2022/05/01 03:27:59;;;;;;;14.93;11.55;;;;;;;13.74;50.74;102289.38;5128770;27;20046;-61
2022/05/01 03:30:26;;;;;;;18.38;11.52;;;;;;;13.67;50.54;102289.75;5134264;27;20043;-62
2022/05/01 03:32:52;;;;;;;15.68;11.70;;;;;;;13.62;50.85;102291.00;5135480;27;20036;-62
2022/05/01 03:35:19;;;;;;;16.75;11.27;;;;;;;13.60;50.84;102282.13;5135211;27;20481;-62
2022/05/01 03:37:46;;;;;;;15.98;11.73;;;;;;;13.57;50.96;102275.06;5129042;27;20389;-62
2022/05/01 03:40:14;;;;;;;17.10;12.13;;;;;;;13.58;51.04;102278.63;5124974;27;20483;-61
2022/05/01 03:42:42;;;;;;;16.77;12.07;;;;;;;13.60;51.18;102277.59;5135711;27;20400;-62
2022/05/01 03:45:09;;;;;;;14.98;12.75;;;;;;;13.62;51.06;102281.06;5135350;27;20043;-61
2022/05/01 03:47:36;;;;;;;18.15;12.85;;;;;;;13.63;51.40;102280.09;5118434;27;20509;-61
2022/05/01 03:50:04;;;;;;;16.98;13.15;;;;;;;13.59;51.44;102273.16;5134387;27;20035;-61
2022/05/01 03:52:33;;;;;;;20.85;13.40;;;;;;;13.56;51.39;102269.78;5123439;27;20039;-62
2022/05/01 03:55:00;;;;;;;18.08;13.65;;;;;;;13.52;51.44;102273.63;5122483;27;20118;-61
2022/05/01 03:57:33;;;;;;;16.60;13.25;;;;;;;13.51;51.54;102274.56;5127441;27;20051;-61
2022/05/01 04:00:00;;;;;;;18.67;13.38;;;;;;;13.51;51.61;102274.56;5115096;28;20040;-61
2022/05/01 04:02:29;;;;;;;18.02;13.95;;;;;;;13.52;51.52;102279.88;5125357;27;20047;-61
2022/05/01 04:04:57;;;;;;;19.42;13.70;;;;;;;13.55;51.70;102282.41;5135047;27;20039;-61
2022/05/01 04:07:24;;;;;;;15.98;12.68;;;;;;;13.56;51.43;102278.72;5130844;27;20073;-60
2022/05/01 04:09:50;;;;;;;17.95;13.07;;;;;;;13.58;51.73;102278.63;5120875;27;20031;-61
2022/05/01 04:12:17;;;;;;;17.75;12.88;;;;;;;13.60;51.53;102291.09;5132240;27;20032;-62
2022/05/01 04:14:45;;;;;;;18.90;13.40;;;;;;;13.61;51.75;102284.72;5113604;28;20101;-61
2022/05/01 04:17:11;;;;;;;18.23;13.65;;;;;;;13.65;51.59;102285.41;5120773;27;20046;-61
2022/05/01 04:19:39;;;;;;;15.82;13.38;;;;;;;13.66;51.64;102287.13;5133662;27;20043;-61
2022/05/01 04:22:05;;;;;;;18.33;13.23;;;;;;;13.68;51.62;102296.88;5133572;27;20049;-61
2022/05/01 04:24:32;;;;;;;14.82;12.35;;;;;;;13.65;51.44;102286.28;5096389;28;20054;-60
2022/05/01 04:26:58;;;;;;;21.17;13.00;;;;;;;13.60;51.43;102285.69;5114595;27;20043;-61
2022/05/01 04:32:23;;;;;;;17.95;13.20;;;;;;;13.59;51.81;102286.66;5114151;27;20094;-61
2022/05/01 04:34:49;;;;;;;19.02;13.18;;;;;;;13.61;51.71;102281.16;5122403;27;20046;-61
2022/05/01 04:37:16;;;;;;;17.13;12.57;;;;;;;13.60;51.98;102282.13;5127864;27;20050;-61
2022/05/01 04:39:43;;;;;;;20.90;14.30;;;;;;;13.59;51.88;102280.38;5119246;27;20039;-62
2022/05/01 04:42:11;;;;;;;17.60;14.45;;;;;;;13.54;51.96;102283.34;5132265;27;20035;-61
2022/05/01 04:44:37;;;;;;;18.27;13.93;;;;;;;13.51;51.90;102285.38;5116932;27;20042;-61
2022/05/01 04:47:04;;;;;;;17.50;13.88;;;;;;;13.52;51.92;102281.72;5133732;27;20412;-61
2022/05/01 04:49:30;;;;;;;16.23;13.38;;;;;;;13.55;52.14;102289.63;5133280;27;20376;-63
2022/05/01 04:51:58;;;;;;;19.20;14.38;;;;;;;13.57;51.94;102288.56;5133899;27;20047;-60
2022/05/01 04:54:24;;;;;;;17.75;13.27;;;;;;;13.57;52.11;102295.81;5133126;27;20046;-61
2022/05/01 04:57:06;;;;;;;18.20;13.13;;;;;;;13.56;52.01;102291.34;5127613;27;20040;-61
2022/05/01 04:59:32;;;;;;;17.20;13.93;;;;;;;13.54;52.17;102294.16;5114163;28;20055;-61
2022/05/01 05:01:59;;;;;;;21.20;14.15;;;;;;;13.53;52.04;102288.84;5134153;27;20043;-61
2022/05/01 05:04:30;;;;;;;19.10;14.45;;;;;;;13.53;52.26;102296.94;5134614;27;20039;-61
2022/05/01 05:06:57;;;;;;;18.85;14.35;;;;;;;13.52;52.11;102284.41;5134239;27;20042;-61
2022/05/01 05:12:10;;;;;;;19.58;14.45;;;;;;;13.47;52.21;102287.38;5133989;27;20492;-62
2022/05/01 05:14:37;;;;;;;18.00;14.40;;;;;;;13.45;52.35;102292.00;5124529;27;20050;-60
2022/05/01 05:17:06;;;;;;;18.60;14.50;;;;;;;13.47;52.62;102286.53;5126410;27;20043;-61
2022/05/01 05:19:34;;;;;;;23.70;14.48;;;;;;;13.50;52.45;102295.31;5135250;27;20074;-61
2022/05/01 05:22:02;;;;;;;20.73;14.82;;;;;;;13.53;52.31;102296.94;5134321;27;20050;-61
2022/05/01 05:24:29;;;;;;;18.45;13.77;;;;;;;13.58;52.64;102303.81;5134230;28;20400;-61
2022/05/01 05:26:57;;;;;;;20.92;14.93;;;;;;;13.62;52.65;102315.28;5133905;28;20054;-61
2022/05/01 05:29:23;;;;;;;21.38;15.30;;;;;;;13.63;52.66;102312.50;5133759;27;20039;-61
2022/05/01 05:31:50;;;;;;;20.60;14.82;;;;;;;13.67;52.89;102315.88;5133797;28;20488;-60
2022/05/01 05:34:18;;;;;;;17.13;14.43;;;;;;;13.71;52.69;102303.06;5131370;28;20088;-60
2022/05/01 05:36:45;;;;;;;18.90;14.48;;;;;;;13.71;52.54;102306.63;5133782;28;20084;-61
2022/05/01 05:39:18;;;;;;;20.98;15.00;;;;;;;13.68;52.69;102307.69;5133183;28;20039;-60
2022/05/01 05:41:45;;;;;;;18.10;14.40;;;;;;;13.67;52.83;102305.06;5131219;28;20032;-60
2022/05/01 05:44:11;;;;;;;17.80;13.85;;;;;;;13.65;52.82;102305.16;5132167;28;20485;-61
2022/05/01 05:46:38;;;;;;;18.40;13.70;;;;;;;13.64;52.75;102311.53;5124180;28;20054;-60
2022/05/01 05:49:07;;;;;;;20.75;13.85;;;;;;;13.65;52.62;102307.00;5116725;28;20040;-61
2022/05/01 05:51:33;;;;;;;18.40;14.30;;;;;;;13.67;52.64;102314.03;5125688;28;20035;-60
2022/05/01 05:54:00;;;;;;;18.17;13.77;;;;;;;13.71;52.97;102303.06;5112124;28;20042;-62
2022/05/01 05:56:26;;;;;;;19.73;14.25;;;;;;;13.74;52.79;102309.13;5129705;28;20039;-61
2022/05/01 05:58:53;;;;;;;21.70;14.50;;;;;;;13.76;52.72;102320.72;5131687;27;20500;-62
2022/05/01 06:01:19;;;;;;;18.23;14.55;;;;;;;13.78;52.75;102324.19;5132525;28;20046;-62
2022/05/01 06:03:46;;;;;;;18.92;14.30;;;;;;;13.82;52.53;102319.47;5130479;28;20039;-61
2022/05/01 06:06:14;;;;;;;17.55;14.43;;;;;;;13.86;52.56;102324.59;5130069;27;20055;-60
2022/05/01 06:08:43;;;;;;;20.20;15.02;;;;;;;13.91;52.68;102319.78;5131441;27;20047;-61
2022/05/01 06:11:10;;;;;;;19.05;14.55;;;;;;;13.93;52.77;102322.38;5123910;27;20039;-61
2022/05/01 06:13:37;;;;;;;23.77;16.20;;;;;;;13.94;52.44;102318.72;5137216;27;20043;-61
2022/05/01 06:16:04;;;;;;;20.02;15.15;;;;;;;13.96;52.71;102311.38;5130670;27;20058;-61
2022/05/01 06:18:30;;;;;;;23.70;16.50;;;;;;;13.99;52.51;102322.88;5133575;27;20051;-60
2022/05/01 06:20:57;;;;;;;21.80;15.85;;;;;;;14.02;52.65;102327.22;5129345;27;20036;-61
2022/05/01 06:23:25;;;;;;;22.30;15.55;;;;;;;14.07;52.48;102324.22;5134020;27;20096;-61
2022/05/01 06:25:52;;;;;;;22.23;15.88;;;;;;;14.12;52.57;102327.50;5135968;27;20038;-61
2022/05/01 06:28:19;;;;;;;22.10;15.30;;;;;;;14.19;52.54;102329.75;5133612;27;20050;-61
2022/05/01 06:30:49;;;;;;;20.55;16.30;;;;;;;14.29;52.33;102332.75;5134313;27;20039;-60
2022/05/01 06:33:17;;;;;;;20.33;15.52;;;;;;;14.38;52.53;102336.69;5112280;28;20054;-61
2022/05/01 06:35:44;;;;;;;22.60;16.23;;;;;;;14.43;52.25;102334.59;5128610;27;20042;-61
2022/05/01 06:38:11;;;;;;;21.98;16.52;;;;;;;14.46;52.09;102327.16;5136532;27;20035;-60
2022/05/01 06:40:38;;;;;;;21.80;16.90;;;;;;;14.50;52.12;102328.72;5130223;27;20047;-61
2022/05/01 06:43:06;;;;;;;21.45;16.75;;;;;;;14.55;52.06;102328.41;5136955;27;20400;-61
2022/05/01 06:45:33;;;;;;;24.40;17.52;;;;;;;14.58;52.10;102331.78;5131546;27;20506;-61
2022/05/01 06:48:04;;;;;;;22.05;17.30;;;;;;;14.63;51.96;102326.97;5131584;27;20039;-61
2022/05/01 06:50:34;;;;;;;20.00;16.63;;;;;;;14.71;52.08;102331.00;5132945;27;20044;-60
2022/05/01 06:53:01;;;;;;;23.23;17.40;;;;;;;14.78;51.92;102332.34;5112154;27;20051;-61
2022/05/01 06:55:28;;;;;;;21.27;17.10;;;;;;;14.85;51.92;102333.66;5132473;27;20035;-61
2022/05/01 06:57:55;;;;;;;18.05;15.25;;;;;;;14.92;52.07;102335.03;5137082;27;20039;-61
2022/05/01 07:00:22;;;;;;;19.30;15.07;;;;;;;14.99;51.91;102333.66;5137050;27;20050;-61
2022/05/01 07:02:50;;;;;;;19.45;15.10;;;;;;;15.03;51.35;102337.03;5137087;27;20404;-60
2022/05/01 07:05:18;;;;;;;20.02;16.00;;;;;;;15.03;51.48;102334.31;5136809;27;20450;-61
2022/05/01 07:07:50;;;;;;;19.58;14.90;;;;;;;15.01;51.17;102333.56;5136864;27;20408;-60
2022/05/01 07:10:18;;;;;;;20.88;16.40;;;;;;;15.01;51.56;102334.44;5135903;27;20054;-61
2022/05/01 07:12:45;;;;;;;19.98;16.38;;;;;;;15.05;51.06;102341.38;5125793;27;20050;-61
2022/05/01 07:15:12;;;;;;;19.65;16.17;;;;;;;15.11;51.38;102332.84;5128223;27;20489;-61
2022/05/01 07:17:39;;;;;;;20.00;16.45;;;;;;;15.18;51.12;102334.19;5136587;27;20430;-60
2022/05/01 07:20:07;;;;;;;23.13;16.52;;;;;;;15.22;50.97;102338.41;5136933;27;20046;-60
2022/05/01 07:22:34;;;;;;;19.75;16.38;;;;;;;15.31;50.95;102338.75;5133401;27;20036;-60
2022/05/01 07:25:01;;;;;;;19.52;16.42;;;;;;;15.38;50.82;102332.84;5136445;27;20046;-60
2022/05/01 07:27:27;;;;;;;21.65;16.70;;;;;;;15.46;50.74;102337.72;5135969;27;20039;-61
2022/05/01 07:29:54;;;;;;;21.00;16.63;;;;;;;15.49;51.01;102332.97;5136442;27;20035;-60
2022/05/01 07:32:24;;;;;;;21.10;15.05;;;;;;;15.51;50.70;102331.03;5136552;27;20036;-60
2022/05/01 07:34:51;;;;;;;18.00;14.27;;;;;;;15.59;50.65;102335.94;5136162;27;20035;-60
2022/05/01 07:37:20;;;;;;;16.23;13.70;;;;;;;15.62;50.53;102343.03;5136555;27;20043;-60
2022/05/01 07:39:46;;;;;;;16.92;14.15;;;;;;;15.65;50.36;102340.97;5135897;27;20039;-60
2022/05/01 07:42:14;;;;;;;25.30;14.05;;;;;;;15.71;50.56;102336.97;5136134;27;20055;-61
2022/05/01 07:44:40;;;;;;;18.02;13.02;;;;;;;15.76;50.05;102338.41;5136095;27;20047;-60
2022/05/01 07:47:07;;;;;;;17.88;13.38;;;;;;;15.78;50.05;102347.28;5135997;27;20053;-66
2022/05/01 07:49:33;;;;;;;18.77;13.20;;;;;;;15.80;49.70;102339.91;5136331;27;20039;-60
2022/05/01 07:52:00;;;;;;;17.35;14.00;;;;;;;15.87;49.90;102338.50;5135184;27;20042;-62
2022/05/01 07:54:26;;;;;;;17.50;13.27;;;;;;;15.93;49.69;102339.94;5132460;27;20054;-62
2022/05/01 07:56:53;;;;;;;18.35;14.50;;;;;;;16.00;49.58;102337.66;5133323;27;20388;-65
2022/05/01 07:59:19;;;;;;;16.55;12.80;;;;;;;16.06;49.71;102332.66;5135528;27;20388;-63
2022/05/01 08:01:47;;;;;;;17.00;12.77;;;;;;;16.14;49.67;102337.56;5135651;27;20145;-63
2022/05/01 08:04:28;;;;;;;16.83;12.80;;;;;;;16.21;49.28;102341.56;5135551;27;20084;-63
2022/05/01 08:07:01;;;;;;;15.30;12.40;;;;;;;16.27;48.99;102343.81;5135780;27;20035;-63
2022/05/01 08:09:29;;;;;;;18.40;13.55;;;;;;;16.29;49.20;102339.16;5136021;27;20054;-63
2022/05/01 08:11:56;;;;;;;18.67;12.75;;;;;;;16.33;49.14;102337.97;5135437;27;20059;-63
2022/05/01 08:14:23;;;;;;;16.90;12.43;;;;;;;16.37;49.01;102336.81;5135381;27;20039;-63
2022/05/01 08:16:51;;;;;;;17.90;12.88;;;;;;;16.42;48.79;102331.91;5135408;27;20438;-63
2022/05/01 08:22:07;;;;;;;;;;;;;;;16.58;49.05;102339.81;5135808;27;20030;-63
2022/05/01 08:24:34;;;;;;;19.65;12.50;;;;;;;16.72;48.53;102338.84;5135096;27;20014;-63
2022/05/01 08:27:05;;;;;;;16.73;11.75;;;;;;;16.77;48.45;102334.81;5135186;27;20043;-63
2022/05/01 08:29:38;;;;;;;14.88;12.10;;;;;;;16.79;48.08;102329.25;5129049;27;20062;-62
2022/05/01 08:32:05;;;;;;;16.73;11.90;;;;;;;16.78;48.05;102333.81;5133254;27;20130;-61
2022/05/01 08:34:32;;;;;;;18.35;11.85;;;;;;;16.82;47.75;102334.47;5114319;28;20090;-62
2022/05/01 08:36:59;;;;;;;12.65;10.85;;;;;;;16.86;47.96;102333.25;5114593;28;20040;-61
2022/05/01 08:39:25;;;;;;;14.43;11.85;;;;;;;16.91;47.67;102339.22;5114553;28;20035;-61
2022/05/01 08:41:52;;;;;;;14.15;11.27;;;;;;;16.95;47.44;102332.56;5120061;27;20408;-61
2022/05/01 08:44:29;;;;;;;14.10;10.77;;;;;;;17.01;47.34;102323.97;5133637;27;20039;-62
2022/05/01 08:47:17;;;;;;;15.35;10.90;;;;;;;17.05;47.15;102328.19;5135136;27;20039;-61
2022/05/01 08:49:46;;;;;;;15.93;11.55;;;;;;;17.09;47.16;102327.00;5134879;27;20050;-61
2022/05/01 08:52:14;;;;;;;16.60;11.18;;;;;;;17.13;46.92;102322.22;5134819;27;20039;-62
2022/05/01 08:54:41;;;;;;;13.88;11.77;;;;;;;17.19;47.16;102324.47;5134627;27;20066;-62
2022/05/01 08:57:12;;;;;;;15.65;11.98;;;;;;;17.27;46.92;102322.03;5135106;27;20039;-62
2022/05/01 08:59:40;;;;;;;14.05;10.90;;;;;;;17.35;46.78;102316.88;5133521;27;20047;-62
2022/05/01 09:02:10;;;;;;;13.80;10.65;;;;;;;17.46;46.41;102313.34;5132334;27;20039;-61
2022/05/01 09:04:41;;;;;;;14.60;10.43;;;;;;;17.58;46.46;102317.84;5134694;27;20058;-63
2022/05/01 09:07:07;;;;;;;13.00;10.27;;;;;;;17.66;46.06;102325.38;5134562;27;20556;-63
2022/05/01 09:09:34;;;;;;;13.90;10.73;;;;;;;17.68;45.92;102324.31;5134557;27;20484;-61
2022/05/01 09:14:49;;;;;;;13.48;10.30;;;;;;;17.67;45.67;102317.16;5134492;27;20047;-62
2022/05/01 09:17:19;;;;;;;15.50;10.20;;;;;;;17.71;45.12;102317.78;5133314;27;20047;-61
2022/05/01 09:19:50;;;;;;;16.38;9.98;;;;;;;17.69;45.18;102312.47;5133412;27;20043;-60
2022/05/01 09:22:22;;;;;;;11.82;9.55;;;;;;;17.67;44.75;102319.88;5132944;27;20396;-62
2022/05/01 09:24:53;;;;;;;13.30;9.57;;;;;;;17.66;44.78;102311.81;5132866;27;20081;-62
2022/05/01 09:27:32;;;;;;;13.70;10.10;;;;;;;17.62;44.83;102319.31;5134682;27;20074;-62
2022/05/01 09:30:08;;;;;;;13.73;10.40;;;;;;;17.59;44.78;102318.69;5134633;27;20137;-62
2022/05/01 09:32:39;;;;;;;14.02;9.60;;;;;;;17.57;44.61;102316.09;5134446;27;20062;-61
2022/05/01 09:35:31;;;;;;;14.73;9.90;;;;;;;17.49;44.44;102318.53;5117196;28;20039;-61
2022/05/01 09:38:13;;;;;;;15.00;10.50;;;;;;;17.49;44.90;102318.53;5107717;28;20051;-61
2022/05/01 09:40:44;;;;;;;13.50;9.90;;;;;;;17.48;44.51;102330.41;5136958;27;20051;-62
2022/05/01 09:43:43;;;;;;;13.13;10.45;;;;;;;17.43;44.27;102328.03;5131037;27;20389;-61
2022/05/01 09:46:29;;;;;;;12.95;9.85;;;;;;;17.40;44.32;102330.13;5138432;27;20138;-61
2022/05/01 09:48:59;;;;;;;10.70;9.40;;;;;;;17.38;44.11;102321.22;5138413;27;20050;-61
2022/05/01 09:51:30;;;;;;;12.55;9.60;;;;;;;17.37;43.79;102328.50;5137953;27;20049;-61
2022/05/01 09:53:58;;;;;;;11.68;9.32;;;;;;;17.36;43.91;102321.34;5117786;28;20126;-62
2022/05/01 09:56:24;;;;;;;10.52;9.20;;;;;;;17.35;43.84;102324.16;5117724;28;20459;-62
2022/05/01 09:58:58;;;;;;;12.20;9.30;;;;;;;17.34;43.71;102326.00;5117559;28;20113;-62
2022/05/01 10:01:26;;;;;;;13.25;9.77;;;;;;;17.34;43.83;102319.72;5117685;28;20039;-62
2022/05/01 10:03:53;;;;;;;12.73;9.98;;;;;;;17.31;43.87;102322.66;5117516;28;20127;-62
2022/05/01 10:06:20;;;;;;;13.57;9.77;;;;;;;17.28;43.53;102314.75;5117560;28;20047;-61
2022/05/01 10:08:47;;;;;;;11.68;9.68;;;;;;;17.26;43.87;102314.00;5117820;27;20055;-62
2022/05/01 10:11:17;;;;;;;13.25;9.25;;;;;;;17.26;43.73;102317.59;5137809;27;20043;-62
2022/05/01 10:13:46;;;;;;;12.30;9.90;;;;;;;17.25;43.47;102318.56;5137596;27;20508;-61
2022/05/01 10:16:15;;;;;;;18.42;9.27;;;;;;;17.27;43.75;102321.16;5119662;27;20058;-61
2022/05/01 10:18:47;;;;;;;;;;;;;;;17.28;43.75;102317.47;5138568;27;20047;-62
2022/05/01 10:21:36;;;;;;;12.52;10.02;;;;;;;17.33;43.54;102321.56;5137629;27;20361;-62
2022/05/01 10:24:03;;;;;;;13.75;10.27;;;;;;;17.33;43.96;102315.28;5118120;27;20146;-63
2022/05/01 10:26:34;;;;;;;12.52;10.50;;;;;;;17.34;43.88;102320.59;5137887;27;20115;-62
2022/05/01 10:29:33;;;;;;;16.42;9.45;;;;;;;17.34;43.81;102315.16;5137559;27;20104;-62
2022/05/01 10:32:21;;;;;;;11.48;9.52;;;;;;;17.36;43.89;102318.63;5125506;27;20047;-62
2022/05/01 10:35:45;;;;;;;12.02;10.00;;;;;;;17.37;43.95;102314.06;5117084;28;20439;-62
2022/05/01 10:38:21;;;;;;;11.52;9.00;;;;;;;17.38;43.70;102311.22;5116894;28;20044;-63
2022/05/01 10:40:58;;;;;;;11.32;9.43;;;;;;;17.37;43.47;102305.91;5116655;28;20059;-63
2022/05/01 10:43:36;;;;;;;11.73;9.48;;;;;;;17.38;43.78;102313.06;5116509;28;20040;-62
2022/05/01 10:46:26;;;;;;;15.07;10.13;;;;;;;17.39;43.42;102312.09;5116671;28;20047;-62
2022/05/01 10:48:55;;;;;;;11.60;9.90;;;;;;;17.44;43.39;102304.44;5116508;28;20051;-62
2022/05/01 10:51:27;;;;;;;16.02;11.60;;;;;;;17.46;43.70;102302.47;5098298;28;20035;-62
2022/05/01 10:54:15;;;;;;;14.10;9.43;;;;;;;17.50;43.46;102298.53;5098045;28;20043;-62
2022/05/01 10:56:45;;;;;;;12.40;9.48;;;;;;;17.56;43.02;102297.19;5116563;28;20047;-62
2022/05/01 10:59:35;;;;;;;14.30;9.68;;;;;;;17.58;42.94;102292.50;5113031;27;20047;-62
2022/05/01 11:02:17;;;;;;;12.85;9.40;;;;;;;17.57;42.95;102293.50;5119441;27;20050;-62
2022/05/01 11:04:44;;;;;;;12.27;9.20;;;;;;;17.57;42.72;102288.94;5135491;27;20408;-61
2022/05/01 11:07:14;;;;;;;12.13;9.30;;;;;;;17.61;42.88;102293.16;5136625;27;20051;-63
2022/05/01 11:09:45;;;;;;;12.30;9.02;;;;;;;17.64;42.48;102290.19;5136461;27;20039;-62
2022/05/01 11:12:14;;;;;;;12.25;9.00;;;;;;;17.68;42.03;102283.56;5136837;27;20047;-62
2022/05/01 11:14:59;;;;;;;12.20;8.90;;;;;;;17.73;41.95;102289.50;5137035;27;20043;-62
2022/05/01 11:17:50;;;;;;;12.82;9.95;;;;;;;17.80;41.78;102281.72;5136712;27;20043;-61
2022/05/01 11:20:21;;;;;;;13.32;9.98;;;;;;;17.89;41.68;102285.59;5135442;27;20047;-62
2022/05/01 11:22:48;;;;;;;12.75;9.48;;;;;;;17.90;41.66;102281.91;5117724;27;20078;-61
2022/05/01 11:25:32;;;;;;;10.45;8.95;;;;;;;17.94;41.42;102277.94;5135847;27;20038;-61
2022/05/01 11:27:59;;;;;;;14.35;9.60;;;;;;;18.05;41.41;102269.81;5133027;27;20035;-62
2022/05/01 11:30:31;;;;;;;11.02;9.15;;;;;;;18.11;41.05;102263.88;5135363;27;20039;-62
2022/05/01 11:33:10;;;;;;;12.60;8.93;;;;;;;18.24;41.13;102256.47;5116396;27;20035;-62
2022/05/01 11:35:56;;;;;;;10.82;8.25;;;;;;;18.41;40.70;102252.34;5135688;27;20046;-62
2022/05/01 11:38:38;;;;;;;9.85;8.85;;;;;;;18.54;40.45;102246.78;5117417;27;20439;-62
2022/05/01 11:41:06;;;;;;;10.35;8.63;;;;;;;18.65;40.52;102244.09;5135843;27;20046;-62
2022/05/01 11:43:34;;;;;;;13.25;9.05;;;;;;;18.79;40.44;102245.66;5135646;27;20122;-61
2022/05/01 11:46:02;;;;;;;10.32;8.88;;;;;;;18.90;39.95;102249.22;5117853;27;20050;-62
2022/05/01 11:48:30;;;;;;;10.30;7.97;;;;;;;19.01;39.76;102229.25;5117624;27;20503;-63